Aviation Digital Data Service (ADDS)

Output produced by METARs form (0001 UTC 22 November 2014)
found at http://aviationweather.gov/adds/metars/
 
KAVL 212330Z 2200/2224 00000KT P6SM SKC 
     FM221800 17006KT P6SM FEW110 SCT250